createdAt,value
2017-04-12T01:15:45.080Z,8.6
2017-04-12T01:16:25.706Z,8.48
2017-04-12T01:17:06.398Z,8.63
2017-04-12T01:17:48.038Z,8.67
2017-04-12T01:18:28.710Z,8.48
2017-04-12T01:19:09.313Z,8.6
2017-04-12T01:19:49.913Z,8.6
2017-04-12T01:20:30.510Z,8.61
2017-04-12T01:21:11.090Z,8.64
2017-04-12T01:21:51.726Z,8.61
2017-04-12T01:22:32.445Z,8.63
2017-04-12T01:23:13.118Z,8.64
2017-04-12T01:23:53.686Z,8.61
2017-04-12T01:24:34.348Z,8.66
2017-04-12T01:25:15.031Z,8.66
2017-04-12T01:25:55.728Z,8.61
2017-04-12T01:26:36.323Z,8.63
2017-04-12T01:27:16.958Z,8.64
2017-04-12T01:27:57.641Z,8.64
2017-04-12T01:28:38.245Z,8.61
2017-04-12T01:29:18.823Z,8.66
2017-04-12T01:29:59.470Z,8.61
2017-04-12T01:30:40.156Z,8.63
2017-04-12T01:31:20.851Z,8.67
2017-04-12T01:32:01.508Z,8.64
2017-04-12T01:32:42.187Z,8.63
2017-04-12T01:33:22.867Z,8.7
2017-04-12T01:34:04.490Z,8.7
2017-04-12T01:34:45.093Z,8.69
2017-04-12T01:35:25.802Z,8.6
2017-04-12T01:36:06.401Z,8.64
2017-04-12T01:36:47.103Z,8.63
2017-04-12T01:37:27.671Z,8.6
2017-04-12T01:38:08.355Z,8.74
2017-04-12T01:38:49.010Z,8.63
2017-04-12T01:39:29.710Z,8.69
2017-04-12T01:40:10.363Z,8.64
2017-04-12T01:40:51.018Z,8.61
2017-04-12T01:41:31.666Z,8.67
2017-04-12T01:42:12.321Z,8.67
2017-04-12T01:42:53.999Z,8.67
2017-04-12T01:43:34.652Z,8.67
2017-04-12T01:44:15.304Z,8.69
2017-04-12T01:44:55.958Z,8.74
2017-04-12T01:45:36.607Z,8.71
2017-04-12T01:46:17.263Z,8.7
2017-04-12T01:46:57.915Z,8.67
2017-04-12T01:47:38.570Z,8.71
2017-04-12T01:48:19.221Z,8.7
2017-04-12T01:48:59.875Z,8.7
2017-04-12T01:49:40.457Z,8.64
2017-04-12T01:50:21.115Z,8.71
2017-04-12T01:51:01.732Z,8.74
2017-04-12T01:51:42.308Z,8.66
2017-04-12T01:52:22.956Z,8.67
2017-04-12T01:53:03.587Z,8.73
2017-04-12T01:53:44.142Z,8.73
2017-04-12T01:54:25.828Z,8.64
2017-04-12T01:55:06.468Z,8.7
2017-04-12T01:55:47.046Z,8.76
2017-04-12T01:56:27.691Z,8.63
2017-04-12T01:57:09.350Z,8.7
2017-04-12T01:57:49.920Z,8.63
2017-04-12T01:58:30.578Z,8.67
2017-04-12T01:59:11.203Z,8.67
2017-04-12T01:59:51.869Z,8.67
2017-04-12T02:00:32.516Z,8.67
2017-04-12T02:01:13.170Z,8.63
2017-04-12T02:01:53.829Z,8.69
2017-04-12T02:02:34.473Z,8.66
2017-04-12T02:03:17.075Z,8.73
2017-04-12T02:03:57.722Z,8.67
2017-04-12T02:04:38.476Z,8.7
2017-04-12T02:05:19.129Z,8.67
2017-04-12T02:05:59.784Z,8.61
2017-04-12T02:06:40.444Z,8.64
2017-04-12T02:07:21.086Z,8.67
2017-04-12T02:08:02.769Z,8.67
2017-04-12T02:08:43.424Z,8.7
2017-04-12T02:09:23.991Z,8.67
2017-04-12T02:10:04.656Z,8.64
2017-04-12T02:10:45.281Z,8.73
2017-04-12T02:11:25.863Z,8.7
2017-04-12T02:12:06.513Z,8.69
2017-04-12T02:12:47.131Z,8.7
2017-04-12T02:13:27.703Z,8.76
2017-04-12T02:14:08.355Z,8.73
2017-04-12T02:14:48.988Z,8.7
2017-04-12T02:15:29.559Z,8.67
2017-04-12T02:16:10.205Z,8.71
2017-04-12T02:16:50.803Z,8.7
2017-04-12T02:17:31.396Z,8.71
2017-04-12T02:18:11.965Z,8.7
2017-04-12T02:18:52.631Z,8.71
2017-04-12T02:19:33.258Z,8.69
2017-04-12T02:20:13.837Z,8.64
2017-04-12T02:20:55.534Z,8.69
2017-04-12T02:21:37.261Z,8.76
2017-04-12T02:22:17.842Z,8.82
2017-04-12T02:22:58.477Z,8.79
2017-04-12T02:23:39.134Z,8.79
2017-04-12T02:24:19.724Z,8.84
2017-04-12T02:25:00.348Z,8.78
2017-04-12T02:25:41.011Z,8.73
2017-04-12T02:26:21.653Z,8.82
2017-04-12T02:27:02.309Z,8.79
2017-04-12T02:27:42.953Z,8.79
2017-04-12T02:28:23.630Z,8.87
2017-04-12T02:29:04.266Z,8.85
2017-04-12T02:29:44.891Z,8.85
2017-04-12T02:30:25.516Z,8.85
2017-04-12T02:31:06.249Z,8.79
2017-04-12T02:31:46.885Z,8.84
2017-04-12T02:32:27.470Z,8.87
2017-04-12T02:33:08.071Z,8.82
2017-04-12T02:33:50.752Z,8.84
2017-04-12T02:34:31.326Z,8.85
2017-04-12T02:35:11.976Z,8.88
2017-04-12T02:35:52.567Z,8.84
2017-04-12T02:36:33.163Z,8.82
2017-04-12T02:37:13.729Z,8.81
2017-04-12T02:37:54.384Z,8.82
2017-04-12T02:38:35.009Z,8.85
2017-04-12T02:39:15.672Z,8.85
2017-04-12T02:39:56.296Z,8.82
2017-04-12T02:40:36.899Z,8.76
2017-04-12T02:41:17.504Z,8.82
2017-04-12T02:41:58.178Z,8.84
2017-04-12T02:42:38.750Z,8.89
2017-04-12T02:43:19.412Z,8.74
2017-04-12T02:44:00.095Z,8.74
2017-04-12T02:44:40.811Z,8.79
2017-04-12T02:45:21.368Z,8.73
2017-04-12T02:46:02.008Z,8.84
2017-04-12T02:46:43.641Z,8.81
2017-04-12T02:47:24.322Z,8.74
2017-04-12T02:48:04.905Z,8.71
2017-04-12T02:48:45.538Z,8.79
2017-04-12T02:49:26.189Z,8.76
2017-04-12T02:50:06.766Z,8.78
2017-04-12T02:50:47.466Z,8.87
2017-04-12T02:51:28.142Z,8.78
2017-04-12T02:52:08.707Z,8.76
2017-04-12T02:52:49.369Z,8.76
2017-04-12T02:53:29.995Z,8.73
2017-04-12T02:54:10.565Z,8.74
2017-04-12T02:54:51.237Z,8.76
2017-04-12T02:55:32.717Z,8.85
2017-04-12T02:56:13.369Z,8.85
2017-04-12T02:56:54.002Z,8.81
2017-04-12T02:57:34.650Z,8.78
2017-04-12T02:58:16.327Z,8.78
2017-04-12T02:58:56.978Z,8.81
2017-04-12T02:59:37.666Z,8.85
2017-04-12T03:00:18.269Z,8.79
2017-04-12T03:00:58.832Z,8.84
2017-04-12T03:01:40.509Z,8.74
2017-04-12T03:02:21.098Z,8.82
2017-04-12T03:03:01.713Z,8.78
2017-04-12T03:03:42.333Z,8.71
2017-04-12T03:04:22.931Z,8.79
2017-04-12T03:05:03.568Z,8.73
2017-04-12T03:05:44.239Z,8.79
2017-04-12T03:06:24.892Z,8.74
2017-04-12T03:07:05.544Z,8.64
2017-04-12T03:07:46.198Z,8.7
2017-04-12T03:08:26.875Z,8.67
2017-04-12T03:09:07.508Z,8.69
2017-04-12T03:09:48.138Z,8.69
2017-04-12T03:10:28.746Z,8.69
2017-04-12T03:11:09.377Z,8.66
2017-04-12T03:11:49.986Z,8.81
2017-04-12T03:12:30.548Z,8.71
2017-04-12T03:13:11.210Z,8.7
2017-04-12T03:13:51.942Z,8.73
2017-04-12T03:14:32.524Z,8.64
2017-04-12T03:15:13.176Z,8.71
2017-04-12T03:15:53.818Z,8.71
2017-04-12T03:16:34.515Z,8.71
2017-04-12T03:17:15.121Z,8.73
2017-04-12T03:17:56.834Z,8.74
2017-04-12T03:18:37.460Z,8.69
2017-04-12T03:19:18.119Z,8.69
2017-04-12T03:19:58.814Z,8.63
2017-04-12T03:20:39.501Z,8.64
2017-04-12T03:21:20.290Z,8.63
2017-04-12T03:22:00.922Z,8.67
2017-04-12T03:22:41.520Z,8.66
2017-04-12T03:23:22.217Z,8.63
2017-04-12T03:24:02.832Z,8.71
2017-04-12T03:24:43.439Z,8.66
2017-04-12T03:25:24.139Z,8.61
2017-04-12T03:26:04.762Z,8.63
2017-04-12T03:26:45.391Z,8.64
2017-04-12T03:27:26.059Z,8.58
2017-04-12T03:28:07.730Z,8.6
2017-04-12T03:28:48.382Z,8.64
2017-04-12T03:29:29.019Z,8.64
2017-04-12T03:30:09.702Z,8.63
2017-04-12T03:30:50.385Z,8.6
2017-04-12T03:31:31.010Z,8.53
2017-04-12T03:32:11.647Z,8.63
2017-04-12T03:32:52.305Z,8.63
2017-04-12T03:33:32.952Z,8.66
2017-04-12T03:34:13.661Z,8.63
2017-04-12T03:34:54.260Z,8.66
2017-04-12T03:35:34.913Z,8.6
2017-04-12T03:36:15.552Z,8.61
2017-04-12T03:36:56.216Z,8.6
2017-04-12T03:37:36.868Z,8.64
2017-04-12T03:38:18.551Z,8.67
2017-04-12T03:38:59.197Z,8.64
2017-04-12T03:39:39.896Z,8.73
2017-04-12T03:40:20.502Z,8.74
2017-04-12T03:41:01.172Z,8.69
2017-04-12T03:41:41.792Z,8.69
2017-04-12T03:42:22.464Z,8.79
2017-04-12T03:43:03.138Z,8.79
2017-04-12T03:43:43.782Z,8.78
2017-04-12T03:44:24.407Z,8.79
2017-04-12T03:45:05.011Z,8.76
2017-04-12T03:45:45.710Z,8.88
2017-04-12T03:46:26.270Z,8.84
2017-04-12T03:47:06.918Z,8.85
2017-04-12T03:47:47.519Z,8.85
2017-04-12T03:48:28.215Z,8.82
2017-04-12T03:49:08.785Z,8.87
2017-04-12T03:49:49.454Z,8.84
2017-04-12T03:50:30.028Z,8.85
2017-04-12T03:51:10.625Z,8.92
2017-04-12T03:51:51.234Z,8.88
2017-04-12T03:52:31.852Z,8.82
2017-04-12T03:53:12.540Z,8.92
2017-04-12T03:53:53.134Z,8.91
2017-04-12T03:54:33.710Z,8.88
2017-04-12T03:55:15.425Z,8.92
2017-04-12T03:55:56.045Z,8.92
2017-04-12T03:56:36.696Z,8.94
2017-04-12T03:57:17.335Z,8.94
2017-04-12T03:57:58.003Z,8.91
2017-04-12T03:58:38.642Z,8.94
2017-04-12T03:59:19.328Z,8.97
2017-04-12T03:59:59.964Z,8.89
2017-04-12T04:00:40.602Z,8.88
2017-04-12T04:01:21.266Z,8.88
2017-04-12T04:02:01.939Z,8.88
2017-04-12T04:02:42.559Z,8.87
2017-04-12T04:03:23.213Z,8.87
2017-04-12T04:04:03.864Z,8.76
2017-04-12T04:04:44.496Z,8.88
2017-04-12T04:05:25.068Z,8.79
2017-04-12T04:06:05.708Z,8.82
2017-04-12T04:06:46.357Z,8.78
2017-04-12T04:07:26.925Z,8.7
2017-04-12T04:08:07.592Z,8.78
2017-04-12T04:08:48.213Z,8.69
2017-04-12T04:09:28.776Z,8.69
2017-04-12T04:10:09.434Z,8.71
2017-04-12T04:10:50.081Z,8.71
2017-04-12T04:11:30.733Z,8.64
2017-04-12T04:12:11.399Z,8.69
2017-04-12T04:12:52.046Z,8.67
2017-04-12T04:13:32.693Z,8.71
2017-04-12T04:14:13.397Z,8.69
2017-04-12T04:14:54.000Z,8.69
2017-04-12T04:15:34.650Z,8.66
2017-04-12T04:16:15.308Z,8.71
2017-04-12T04:16:55.976Z,8.67
2017-04-12T04:17:36.638Z,8.7
2017-04-12T04:18:17.266Z,8.66
2017-04-12T04:18:57.957Z,8.66
2017-04-12T04:19:38.625Z,8.6
2017-04-12T04:20:19.245Z,8.66
2017-04-12T04:20:59.885Z,8.64
2017-04-12T04:21:40.528Z,8.61
2017-04-12T04:22:21.198Z,8.58
2017-04-12T04:23:01.844Z,8.55
2017-04-12T04:23:42.507Z,8.49
2017-04-12T04:24:23.144Z,8.58
2017-04-12T04:25:03.795Z,8.48
2017-04-12T04:25:44.466Z,8.52
2017-04-12T04:26:25.151Z,8.52
2017-04-12T04:27:05.794Z,8.51
2017-04-12T04:27:46.408Z,8.49
2017-04-12T04:28:27.069Z,8.56
2017-04-12T04:29:07.709Z,8.55
2017-04-12T04:29:48.311Z,8.49
2017-04-12T04:30:29.006Z,8.46
2017-04-12T04:31:09.578Z,8.51
2017-04-12T04:31:50.219Z,8.48
2017-04-12T04:32:30.823Z,8.46
2017-04-12T04:33:11.517Z,8.52
2017-04-12T04:33:52.112Z,8.46
2017-04-12T04:34:32.753Z,8.46
2017-04-12T04:35:13.392Z,8.51
2017-04-12T04:35:54.055Z,8.48
2017-04-12T04:36:34.723Z,8.52
2017-04-12T04:37:15.359Z,8.46
2017-04-12T04:37:56.017Z,8.52
2017-04-12T04:38:37.690Z,8.45
2017-04-12T04:39:18.344Z,8.53
2017-04-12T04:39:59.006Z,8.49
2017-04-12T04:40:39.648Z,8.49
2017-04-12T04:41:20.294Z,8.51
2017-04-12T04:42:01.051Z,8.53
2017-04-12T04:42:42.625Z,8.56
2017-04-12T04:43:23.279Z,8.52
2017-04-12T04:44:03.939Z,8.53
2017-04-12T04:44:44.619Z,8.55
2017-04-12T04:45:25.322Z,8.51
2017-04-12T04:46:05.893Z,8.51
2017-04-12T04:46:46.550Z,8.51
2017-04-12T04:47:27.245Z,8.51
2017-04-12T04:48:07.931Z,8.51
2017-04-12T04:48:48.538Z,8.49
2017-04-12T04:49:29.147Z,8.6
2017-04-12T04:50:09.744Z,8.61
2017-04-12T04:50:50.337Z,8.63
2017-04-12T04:51:30.912Z,8.63
2017-04-12T04:52:12.594Z,8.64
2017-04-12T04:52:53.315Z,8.66
2017-04-12T04:53:34.092Z,8.66
2017-04-12T04:54:14.671Z,8.67
2017-04-12T04:54:55.306Z,8.63
2017-04-12T04:55:35.934Z,8.64
2017-04-12T04:56:16.591Z,8.7
2017-04-12T04:56:57.162Z,8.63
2017-04-12T04:57:37.791Z,8.64
2017-04-12T04:58:18.365Z,8.67
2017-04-12T04:58:59.021Z,8.63
2017-04-12T04:59:39.645Z,8.64
2017-04-12T05:00:20.222Z,8.66
2017-04-12T05:01:00.872Z,8.69
2017-04-12T05:01:41.558Z,8.66
2017-04-12T05:02:22.155Z,8.67
2017-04-12T05:03:02.774Z,8.55
2017-04-12T05:03:43.387Z,8.66
2017-04-12T05:04:24.065Z,8.58
2017-04-12T05:05:04.662Z,8.61
2017-04-12T05:05:45.313Z,8.63
2017-04-12T05:06:25.969Z,8.64
2017-04-12T05:07:06.631Z,8.64
2017-04-12T05:07:47.278Z,8.63
2017-04-12T05:08:27.937Z,8.66
2017-04-12T05:09:08.581Z,8.66
2017-04-12T05:09:49.152Z,8.64
2017-04-12T05:10:29.847Z,8.6
2017-04-12T05:11:10.499Z,8.67
2017-04-12T05:11:51.092Z,8.63
2017-04-12T05:12:31.669Z,8.64
2017-04-12T05:13:12.312Z,8.67
2017-04-12T05:13:52.911Z,8.64
2017-04-12T05:14:33.601Z,8.66
2017-04-12T05:15:14.180Z,8.61
2017-04-12T05:15:54.820Z,8.64
2017-04-12T05:16:35.472Z,8.76
2017-04-12T05:17:16.122Z,8.69
2017-04-12T05:17:56.798Z,8.71
2017-04-12T05:18:37.431Z,8.71
2017-04-12T05:19:18.088Z,8.78
2017-04-12T05:19:58.722Z,8.73
2017-04-12T05:20:39.299Z,8.64
2017-04-12T05:21:19.930Z,8.67
2017-04-12T05:22:00.675Z,8.79
2017-04-12T05:22:41.255Z,8.78
2017-04-12T05:23:22.003Z,8.74
2017-04-12T05:24:02.742Z,8.73
2017-04-12T05:24:43.309Z,8.74
2017-04-12T05:25:24.063Z,8.78
2017-04-12T05:26:04.657Z,8.78
2017-04-12T05:26:45.352Z,8.85
2017-04-12T05:27:25.921Z,8.89
2017-04-12T05:28:06.675Z,8.87
2017-04-12T05:28:47.373Z,8.81
2017-04-12T05:29:28.064Z,8.88
2017-04-12T05:30:08.826Z,8.94
2017-04-12T05:30:49.577Z,8.97
2017-04-12T05:31:30.333Z,8.99
2017-04-12T05:32:11.088Z,8.97
2017-04-12T05:32:51.841Z,8.97
2017-04-12T05:33:32.598Z,8.95
2017-04-12T05:34:13.355Z,8.92
2017-04-12T05:34:54.109Z,9.04
2017-04-12T05:35:34.866Z,9.04
2017-04-12T05:36:15.620Z,8.99
2017-04-12T05:36:56.374Z,9.03
2017-04-12T05:37:37.035Z,9.04
2017-04-12T05:38:17.789Z,9.03
2017-04-12T05:38:58.538Z,8.99
2017-04-12T05:39:39.298Z,8.97
2017-04-12T05:40:20.048Z,8.99
2017-04-12T05:41:00.803Z,9.13
2017-04-12T05:41:41.560Z,9.11
2017-04-12T05:42:22.315Z,9.04
2017-04-12T05:43:15.923Z,9.04
2017-04-12T05:43:56.648Z,8.99
2017-04-12T05:44:37.210Z,9.16
2017-04-12T05:45:17.865Z,8.97
2017-04-12T05:46:03.411Z,9.13
2017-04-12T05:46:43.980Z,9.11
2017-04-12T05:47:24.747Z,9.08
2017-04-12T05:48:05.385Z,9.08
2017-04-12T05:48:45.967Z,9.18
2017-04-12T05:49:26.600Z,9.14
2017-04-12T05:50:07.348Z,9.08
2017-04-12T05:50:47.923Z,9.1
2017-04-12T05:51:28.556Z,9.03
2017-04-12T05:52:09.258Z,9.08
2017-04-12T05:52:49.877Z,9.13
2017-04-12T05:53:30.470Z,9.13
2017-04-12T05:54:11.084Z,9.16
2017-04-12T05:54:51.762Z,9.1
2017-04-12T05:55:32.362Z,9.13
2017-04-12T05:56:12.930Z,9.18
2017-04-12T05:56:53.593Z,9.19
2017-04-12T05:57:34.281Z,9.19
2017-04-12T05:58:14.982Z,9.13
2017-04-12T05:58:55.563Z,9.23
2017-04-12T05:59:36.184Z,9.18
2017-04-12T06:00:16.828Z,9.23
2017-04-12T06:00:57.432Z,9.25
2017-04-12T06:01:38.166Z,9.25
2017-04-12T06:02:18.796Z,9.21
2017-04-12T06:02:59.346Z,9.26
2017-04-12T06:03:40.012Z,9.22
2017-04-12T06:04:20.643Z,9.25
2017-04-12T06:05:01.209Z,9.31
2017-04-12T06:05:41.875Z,9.29
2017-04-12T06:06:22.576Z,9.34
2017-04-12T06:07:03.258Z,9.28
2017-04-12T06:07:43.842Z,9.37
2017-04-12T06:08:24.588Z,9.41
2017-04-12T06:09:05.193Z,9.39
2017-04-12T06:09:45.868Z,9.39
2017-04-12T06:10:26.439Z,9.43
2017-04-12T06:11:07.128Z,9.39
2017-04-12T06:11:47.765Z,9.48
2017-04-12T06:12:28.425Z,9.58
2017-04-12T06:13:09.066Z,9.5
2017-04-12T06:13:49.687Z,9.48
2017-04-12T06:14:30.349Z,9.54
2017-04-12T06:15:11.006Z,9.51
2017-04-12T06:15:51.676Z,9.5
2017-04-12T06:16:32.456Z,9.58
2017-04-12T06:17:13.063Z,9.51
2017-04-12T06:17:53.723Z,9.55
2017-04-12T06:18:34.411Z,9.59
2017-04-12T06:19:15.074Z,9.55
2017-04-12T06:19:56.723Z,9.55
2017-04-12T06:20:37.351Z,9.62
2017-04-12T06:21:18.010Z,9.61
2017-04-12T06:21:58.767Z,9.61
2017-04-12T06:22:39.412Z,9.61
2017-04-12T06:23:20.094Z,9.62
2017-04-12T06:24:00.722Z,9.62
2017-04-12T06:24:41.376Z,9.64
2017-04-12T06:25:22.036Z,9.66
2017-04-12T06:26:02.726Z,9.68
2017-04-12T06:26:43.368Z,9.64
2017-04-12T06:27:24.016Z,9.68
2017-04-12T06:28:04.650Z,9.65
2017-04-12T06:28:45.305Z,9.66
2017-04-12T06:29:25.940Z,9.66
2017-04-12T06:30:06.643Z,9.64
2017-04-12T06:30:47.288Z,9.74
2017-04-12T06:31:27.995Z,9.65
2017-04-12T06:32:08.599Z,9.73
2017-04-12T06:32:49.239Z,9.68
2017-04-12T06:33:29.910Z,9.76
2017-04-12T06:34:10.603Z,9.74
2017-04-12T06:34:51.178Z,9.73
2017-04-12T06:35:31.839Z,9.79
2017-04-12T06:36:12.502Z,9.83
2017-04-12T06:36:53.167Z,9.8
2017-04-12T06:37:33.801Z,9.87
2017-04-12T06:38:14.440Z,9.84
2017-04-12T06:38:55.101Z,9.89
2017-04-12T06:39:35.759Z,9.89
2017-04-12T06:40:16.431Z,9.91
2017-04-12T06:40:57.386Z,9.97
2017-04-12T06:41:38.046Z,9.97
2017-04-12T06:42:18.684Z,9.98
2017-04-12T06:42:59.345Z,9.95
2017-04-12T06:43:39.965Z,9.97
2017-04-12T06:44:20.626Z,9.91
2017-04-12T06:45:01.275Z,9.95
2017-04-12T06:45:41.968Z,10.04
2017-04-12T06:46:22.665Z,9.98
2017-04-12T06:47:03.258Z,10.04
2017-04-12T06:47:43.938Z,10.17
2017-04-12T06:48:24.607Z,10.09
2017-04-12T06:49:05.306Z,10.13
2017-04-12T06:49:45.909Z,10.19
2017-04-12T06:50:26.626Z,10.16
2017-04-12T06:51:07.254Z,10.3
2017-04-12T06:51:47.925Z,10.17
2017-04-12T06:52:28.576Z,10.16
2017-04-12T06:53:09.230Z,10.17
2017-04-12T06:53:49.983Z,10.25
2017-04-12T06:54:30.663Z,10.26
2017-04-12T06:55:11.295Z,10.16
2017-04-12T06:55:51.991Z,10.33
2017-04-12T06:56:32.735Z,10.19
2017-04-12T06:57:13.331Z,10.22
2017-04-12T06:57:54.006Z,10.22
2017-04-12T06:58:34.783Z,10.3
2017-04-12T06:59:15.431Z,10.33
2017-04-12T06:59:56.048Z,10.33
2017-04-12T07:00:36.715Z,10.35
2017-04-12T07:01:17.371Z,10.35
2017-04-12T07:01:58.000Z,10.44
2017-04-12T07:02:38.660Z,10.37
2017-04-12T07:03:20.350Z,10.42
2017-04-12T07:04:01.021Z,10.54
2017-04-12T07:04:41.642Z,10.48
2017-04-12T07:05:22.344Z,10.53
2017-04-12T07:06:03.037Z,10.53
2017-04-12T07:06:43.659Z,10.54
2017-04-12T07:07:24.423Z,10.61
2017-04-12T07:08:05.166Z,10.68
2017-04-12T07:08:45.964Z,10.68
2017-04-12T07:09:26.635Z,10.69
2017-04-12T07:10:07.291Z,10.67
2017-04-12T07:10:47.927Z,10.68
2017-04-12T07:11:28.563Z,10.75
2017-04-12T07:12:09.249Z,10.75
2017-04-12T07:12:49.886Z,10.69
2017-04-12T07:13:30.468Z,10.75
2017-04-12T07:14:11.104Z,10.81
2017-04-12T07:14:51.838Z,10.76
2017-04-12T07:15:32.424Z,10.75
2017-04-12T07:16:13.081Z,10.81
2017-04-12T07:16:54.787Z,10.81
2017-04-12T07:17:35.580Z,10.78
2017-04-12T07:18:16.149Z,10.89
2017-04-12T07:18:56.804Z,10.82
2017-04-12T07:19:37.497Z,10.87
2017-04-12T07:20:19.206Z,10.84
2017-04-12T07:20:59.837Z,10.87
2017-04-12T07:21:40.440Z,10.87
2017-04-12T07:22:22.165Z,10.81
2017-04-12T07:23:02.850Z,10.82
2017-04-12T07:23:43.451Z,10.89
2017-04-12T07:24:24.056Z,10.92
2017-04-12T07:25:04.762Z,10.87
2017-04-12T07:25:45.480Z,10.93
2017-04-12T07:26:26.059Z,10.9
2017-04-12T07:27:06.789Z,10.89
2017-04-12T07:27:47.481Z,10.92
2017-04-12T07:28:28.174Z,10.94
2017-04-12T07:29:08.757Z,10.82
2017-04-12T07:29:49.404Z,10.94
2017-04-12T07:30:30.103Z,10.9
2017-04-12T07:31:10.780Z,10.97
2017-04-12T07:31:51.379Z,10.94
2017-04-12T07:32:32.008Z,11
2017-04-12T07:33:12.699Z,10.99
2017-04-12T07:33:53.392Z,11.04
2017-04-12T07:34:33.973Z,11.1
2017-04-12T07:35:14.654Z,11.11
2017-04-12T07:35:55.276Z,11.18
2017-04-12T07:36:35.926Z,11.17
2017-04-12T07:37:16.589Z,11.18
2017-04-12T07:37:57.314Z,11.19
2017-04-12T07:38:37.978Z,11.18
2017-04-12T07:39:18.636Z,11.29
2017-04-12T07:39:59.385Z,11.19
2017-04-12T07:40:40.056Z,11.25
2017-04-12T07:41:21.721Z,11.22
2017-04-12T07:42:02.442Z,11.27
2017-04-12T07:42:43.132Z,11.35
2017-04-12T07:43:23.782Z,11.37
2017-04-12T07:44:04.430Z,11.48
2017-04-12T07:44:45.087Z,11.54
2017-04-12T07:45:25.742Z,11.47
2017-04-12T07:46:06.395Z,11.51
2017-04-12T07:46:47.065Z,11.5
2017-04-12T07:47:27.691Z,11.51
2017-04-12T07:48:08.352Z,11.51
2017-04-12T07:48:49.008Z,11.5
2017-04-12T07:49:29.658Z,11.47
2017-04-12T07:50:10.324Z,11.47
2017-04-12T07:50:50.970Z,11.54
2017-04-12T07:51:31.621Z,11.51
2017-04-12T07:52:12.297Z,11.52
2017-04-12T07:52:53.010Z,11.62
2017-04-12T07:53:33.714Z,11.62
2017-04-12T07:54:14.351Z,11.52
2017-04-12T07:54:54.992Z,11.6
2017-04-12T07:55:35.677Z,11.65
2017-04-12T07:56:16.373Z,11.62
2017-04-12T07:56:56.964Z,11.78
2017-04-12T07:57:37.607Z,11.81
2017-04-12T07:58:18.278Z,11.8
2017-04-12T07:58:58.983Z,11.8
2017-04-12T07:59:39.578Z,11.8
2017-04-12T08:00:20.266Z,11.88
2017-04-12T08:01:00.946Z,11.87
2017-04-12T08:01:41.531Z,11.81
2017-04-12T08:02:22.178Z,11.86
2017-04-12T08:03:02.801Z,11.88
2017-04-12T08:03:43.374Z,11.88
2017-04-12T08:04:24.053Z,11.87
2017-04-12T08:05:04.658Z,11.97
2017-04-12T08:05:45.223Z,11.97
2017-04-12T08:06:25.914Z,11.94
2017-04-12T08:07:06.621Z,11.99
2017-04-12T08:07:47.183Z,12.06
2017-04-12T08:08:27.837Z,12.04
2017-04-12T08:09:08.471Z,12.15
2017-04-12T08:09:49.056Z,12.12
2017-04-12T08:10:29.791Z,12.15
2017-04-12T08:11:10.453Z,12.36
2017-04-12T08:11:51.116Z,12.36
2017-04-12T08:12:31.753Z,12.45
2017-04-12T08:13:12.425Z,12.42
2017-04-12T08:13:53.067Z,12.46
2017-04-12T08:14:33.716Z,12.55
2017-04-12T08:15:14.380Z,12.72
2017-04-12T08:15:55.030Z,12.8
2017-04-12T08:16:35.684Z,12.91
2017-04-12T08:17:16.339Z,13.03
2017-04-12T08:17:56.979Z,13
2017-04-12T08:18:37.640Z,13.12
2017-04-12T08:19:18.301Z,13.08
2017-04-12T08:19:58.950Z,13.12
2017-04-12T08:20:39.638Z,13.11
2017-04-12T08:21:20.341Z,13.22
2017-04-12T08:22:00.936Z,13.18
2017-04-12T08:22:41.682Z,13.27
2017-04-12T08:23:22.359Z,13.12
2017-04-12T08:24:03.063Z,13.09
2017-04-12T08:24:43.625Z,13.13
2017-04-12T08:25:24.265Z,13.13
2017-04-12T08:26:04.943Z,13.11
2017-04-12T08:26:45.681Z,13.11
2017-04-12T08:27:26.346Z,13.11
2017-04-12T08:28:07.146Z,13.13
2017-04-12T08:28:48.775Z,13.15
2017-04-12T08:29:30.466Z,13.05
2017-04-12T08:30:11.215Z,13.05
2017-04-12T08:30:51.901Z,12.98
2017-04-12T08:31:32.584Z,13.01
2017-04-12T08:32:13.179Z,13
2017-04-12T08:32:53.927Z,13.03
2017-04-12T08:33:34.596Z,12.98
2017-04-12T08:34:15.294Z,12.93
2017-04-12T08:34:55.862Z,12.97
2017-04-12T08:35:36.524Z,12.97
2017-04-12T08:36:17.252Z,13.01
2017-04-12T08:36:58.975Z,12.98
2017-04-12T08:37:39.545Z,12.97
2017-04-12T08:38:22.284Z,13.04
2017-04-12T08:39:05.013Z,12.95
2017-04-12T08:39:45.797Z,12.95
2017-04-12T08:40:26.420Z,12.95
2017-04-12T08:41:07.482Z,12.95
2017-04-12T08:41:49.304Z,13.01
2017-04-12T08:42:29.884Z,13.11
2017-04-12T08:43:11.662Z,12.98
2017-04-12T08:44:04.455Z,12.97
2017-04-12T08:44:45.073Z,13.04
2017-04-12T08:45:37.790Z,13.08
2017-04-12T08:46:18.524Z,12.98
2017-04-12T08:47:01.259Z,13.03
2017-04-12T08:47:43.051Z,12.97
2017-04-12T08:48:23.793Z,12.98
2017-04-12T08:49:04.427Z,13.04
2017-04-12T08:49:49.755Z,13.05
2017-04-12T08:50:36.252Z,13.01
2017-04-12T08:51:27.775Z,12.93
2017-04-12T08:52:10.587Z,12.98
2017-04-12T08:52:52.391Z,12.91
2017-04-12T08:53:35.144Z,12.94
2017-04-12T08:54:15.896Z,12.87
2017-04-12T08:54:56.660Z,12.9
2017-04-12T08:55:37.398Z,12.85
2017-04-12T08:56:17.986Z,12.85
2017-04-12T08:56:58.717Z,12.85
2017-04-12T08:57:41.444Z,12.86
2017-04-12T08:58:22.001Z,12.86
2017-04-12T08:59:02.671Z,12.85
2017-04-12T08:59:45.446Z,12.9
2017-04-12T09:00:26.053Z,12.91
2017-04-12T09:01:07.700Z,12.91
2017-04-12T09:01:48.371Z,12.82
2017-04-12T09:02:30.034Z,12.86
2017-04-12T09:03:10.686Z,12.9
2017-04-12T09:03:57.176Z,12.91
2017-04-12T09:04:37.882Z,12.9
2017-04-12T09:05:18.582Z,12.94
2017-04-12T09:06:05.228Z,13.11
2017-04-12T09:06:47.001Z,13.19
2017-04-12T09:07:28.631Z,13.27
2017-04-12T09:08:11.364Z,13.37
2017-04-12T09:08:53.118Z,13.47
2017-04-12T09:09:34.780Z,13.62
2017-04-12T09:10:15.432Z,13.62
2017-04-12T09:10:58.110Z,13.74
2017-04-12T09:11:38.872Z,13.75
2017-04-12T09:12:19.449Z,13.7
2017-04-12T09:13:00.099Z,13.63
2017-04-12T09:13:41.823Z,13.71
2017-04-12T09:14:22.505Z,13.65
2017-04-12T09:15:03.115Z,13.65
2017-04-12T09:15:45.776Z,13.54
2017-04-12T09:16:26.446Z,13.68
2017-04-12T09:17:07.109Z,13.7
2017-04-12T09:17:47.758Z,13.67
2017-04-12T09:18:30.454Z,13.68
2017-04-12T09:19:12.114Z,13.67
2017-04-12T09:19:52.768Z,13.77
2017-04-12T09:20:38.984Z,13.83
2017-04-12T09:21:20.705Z,13.81
2017-04-12T09:22:01.285Z,13.75
2017-04-12T09:22:42.806Z,13.78
2017-04-12T09:23:24.468Z,13.81
2017-04-12T09:24:07.213Z,13.81
2017-04-12T09:24:47.896Z,13.93
2017-04-12T09:25:28.537Z,13.95
2017-04-12T09:26:14.205Z,14.04
2017-04-12T09:26:54.966Z,14.1
2017-04-12T09:27:36.636Z,14.2
2017-04-12T09:28:22.214Z,14.28
2017-04-12T09:29:02.859Z,14.41
2017-04-12T09:29:49.250Z,14.45
2017-04-12T09:30:29.901Z,14.43
2017-04-12T09:31:10.555Z,14.41
2017-04-12T09:31:51.274Z,14.43
2017-04-12T09:32:32.082Z,14.37
2017-04-12T09:33:14.774Z,14.29
2017-04-12T09:33:55.430Z,14.28
2017-04-12T09:34:36.224Z,14.17
2017-04-12T09:35:16.932Z,14.12
2017-04-12T09:35:57.590Z,14.07
2017-04-12T09:36:40.280Z,14.11
2017-04-12T09:37:20.941Z,14.15
2017-04-12T09:38:01.584Z,14.12
2017-04-12T09:38:42.358Z,14.2
2017-04-12T09:39:23.009Z,14.2
2017-04-12T09:40:03.683Z,14.2
2017-04-12T09:40:45.410Z,14.25
2017-04-12T09:41:26.117Z,14.28
2017-04-12T09:42:06.733Z,14.32
2017-04-12T09:42:47.401Z,14.44
2017-04-12T09:43:28.040Z,14.45
2017-04-12T09:44:08.697Z,14.53
2017-04-12T09:44:54.202Z,14.62
2017-04-12T09:45:34.916Z,14.62
2017-04-12T09:46:15.606Z,14.62
2017-04-12T09:46:56.341Z,14.66
2017-04-12T09:47:37.174Z,14.81
2017-04-12T09:48:17.828Z,14.85
2017-04-12T09:48:58.528Z,14.97
2017-04-12T09:49:39.249Z,15.03
2017-04-12T09:50:19.934Z,15.11
2017-04-12T09:51:00.653Z,15.18
2017-04-12T09:51:41.314Z,15.22
2017-04-12T09:52:21.996Z,15.27
2017-04-12T09:53:03.747Z,15.35
2017-04-12T09:53:45.442Z,15.31
2017-04-12T09:54:27.197Z,15.35
2017-04-12T09:55:07.824Z,15.35
2017-04-12T09:55:48.561Z,15.37
2017-04-12T09:56:29.229Z,15.29
2017-04-12T09:57:09.909Z,15.21
2017-04-12T09:57:50.560Z,15.19
2017-04-12T09:58:31.328Z,15.09
2017-04-12T09:59:11.962Z,14.96
2017-04-12T09:59:52.632Z,14.97
2017-04-12T10:00:34.296Z,14.94
2017-04-12T10:01:14.953Z,15
2017-04-12T10:01:55.598Z,14.97
2017-04-12T10:02:36.256Z,14.97
2017-04-12T10:03:16.900Z,14.96
2017-04-12T10:03:57.549Z,15.14
2017-04-12T10:04:38.216Z,15.1
2017-04-12T10:05:18.846Z,15.14
2017-04-12T10:05:59.556Z,15.06
2017-04-12T10:06:40.251Z,15.19
2017-04-12T10:07:20.820Z,15.14
2017-04-12T10:08:01.481Z,15.06
2017-04-12T10:08:42.207Z,15.09
2017-04-12T10:09:22.860Z,15.07
2017-04-12T10:10:03.430Z,14.89
2017-04-12T10:10:44.088Z,14.97
2017-04-12T10:11:24.716Z,14.96
2017-04-12T10:12:05.282Z,14.86
2017-04-12T10:12:45.936Z,14.89
2017-04-12T10:13:26.574Z,14.89
2017-04-12T10:14:07.201Z,14.94